createdAt,value
2022-08-28T00:01:46.996Z,39.50
2022-08-28T00:04:21.878Z,39.43
2022-08-28T00:10:11.688Z,39.51
2022-08-28T00:12:44.150Z,39.66
2022-08-28T00:15:22.740Z,39.72
2022-08-28T00:17:58.106Z,40.08
2022-08-28T00:20:31.851Z,39.92
2022-08-28T00:23:06.034Z,40.11
2022-08-28T00:28:23.735Z,40.23
2022-08-28T00:30:59.205Z,40.21
2022-08-28T00:33:33.682Z,40.35
2022-08-28T00:36:10.280Z,40.45
2022-08-28T00:38:41.208Z,40.53
2022-08-28T00:41:13.605Z,40.56
2022-08-28T00:43:47.150Z,40.68
2022-08-28T00:46:20.137Z,40.77
2022-08-28T00:48:53.117Z,40.73
2022-08-28T00:51:41.362Z,40.69
2022-08-28T00:54:12.311Z,40.84
2022-08-28T00:56:43.361Z,40.88
2022-08-28T00:59:19.515Z,40.95
2022-08-28T01:01:54.780Z,41.03
2022-08-28T01:04:30.453Z,41.13
2022-08-28T01:07:05.663Z,41.06
2022-08-28T01:09:38.243Z,41.13
2022-08-28T01:12:12.223Z,41.29
2022-08-28T01:14:45.957Z,41.22
2022-08-28T01:17:20.868Z,41.35
2022-08-28T01:19:56.648Z,41.36
2022-08-28T01:22:30.593Z,41.40
2022-08-28T01:25:06.999Z,41.62
2022-08-28T01:27:37.806Z,41.72
2022-08-28T01:30:11.114Z,41.80
2022-08-28T01:32:42.527Z,41.86
2022-08-28T01:35:21.099Z,41.90
2022-08-28T01:37:57.593Z,41.98
2022-08-28T01:40:31.067Z,41.94
2022-08-28T01:43:12.727Z,41.93
2022-08-28T01:45:45.754Z,42.14
2022-08-28T01:48:17.021Z,42.23
2022-08-28T01:50:50.777Z,42.26
2022-08-28T01:53:26.388Z,42.25
2022-08-28T01:56:08.215Z,42.16
2022-08-28T01:58:39.703Z,42.45
2022-08-28T02:01:13.474Z,42.40
2022-08-28T02:03:44.379Z,42.37
2022-08-28T02:06:15.636Z,42.24
2022-08-28T02:08:49.961Z,42.46
2022-08-28T02:11:24.069Z,42.50
2022-08-28T02:13:58.062Z,42.65
2022-08-28T02:16:33.178Z,42.55
2022-08-28T02:19:06.539Z,42.58
2022-08-28T02:21:42.228Z,42.64
2022-08-28T02:24:19.813Z,42.76
2022-08-28T02:26:50.480Z,42.79
2022-08-28T02:29:23.818Z,43.00
2022-08-28T02:31:54.475Z,42.95
2022-08-28T02:34:34.937Z,42.88
2022-08-28T02:37:09.418Z,42.96
2022-08-28T02:39:45.591Z,43.08
2022-08-28T02:42:16.468Z,43.08
2022-08-28T02:44:50.255Z,42.94
2022-08-28T02:47:28.713Z,43.07
2022-08-28T02:50:03.640Z,43.08
2022-08-28T02:52:35.707Z,43.18
2022-08-28T02:55:07.847Z,43.31
2022-08-28T02:57:40.161Z,43.21
2022-08-28T03:00:16.281Z,43.43
2022-08-28T03:02:48.386Z,43.52
2022-08-28T03:05:27.398Z,43.44
2022-08-28T03:08:01.547Z,43.39
2022-08-28T03:10:34.896Z,43.61
2022-08-28T03:13:08.118Z,43.65
2022-08-28T03:15:43.829Z,43.71
2022-08-28T03:18:18.367Z,43.62
2022-08-28T03:20:49.603Z,43.93
2022-08-28T03:23:29.553Z,43.70
2022-08-28T03:26:01.220Z,43.87
2022-08-28T03:28:37.961Z,43.87
2022-08-28T03:31:11.193Z,43.72
2022-08-28T03:33:44.897Z,43.97
2022-08-28T03:36:17.710Z,44.01
2022-08-28T03:38:51.289Z,43.95
2022-08-28T03:41:27.437Z,43.75
2022-08-28T03:44:00.879Z,43.73
2022-08-28T03:46:35.174Z,43.90
2022-08-28T03:49:08.250Z,43.59
2022-08-28T03:51:38.970Z,43.91
2022-08-28T03:54:09.692Z,43.61
2022-08-28T03:56:42.357Z,43.87
2022-08-28T03:59:15.892Z,43.99
2022-08-28T04:01:46.660Z,43.62
2022-08-28T04:04:17.473Z,43.81
2022-08-28T04:06:48.488Z,43.94
2022-08-28T04:09:22.010Z,43.61
2022-08-28T04:11:54.381Z,43.68
2022-08-28T04:14:27.592Z,43.79
2022-08-28T04:17:01.642Z,43.89
2022-08-28T04:19:33.486Z,43.81
2022-08-28T04:22:05.219Z,43.87
2022-08-28T04:24:36.208Z,43.73
2022-08-28T04:27:07.003Z,43.93
2022-08-28T04:29:40.782Z,43.92
2022-08-28T04:32:11.720Z,43.99
2022-08-28T04:34:42.460Z,44.11
2022-08-28T04:37:14.636Z,44.20
2022-08-28T04:39:46.739Z,44.36
2022-08-28T04:42:21.198Z,44.11
2022-08-28T04:44:52.001Z,44.16
2022-08-28T04:47:26.281Z,44.22
2022-08-28T04:49:58.775Z,44.07
2022-08-28T04:52:29.672Z,44.09
2022-08-28T04:55:05.246Z,44.01
2022-08-28T04:57:36.596Z,44.20
2022-08-28T05:00:16.073Z,43.96
2022-08-28T05:02:46.995Z,44.05
2022-08-28T05:05:20.236Z,43.75
2022-08-28T05:07:53.980Z,44.04
2022-08-28T05:10:27.176Z,43.84
2022-08-28T05:13:00.317Z,44.03
2022-08-28T05:15:32.803Z,43.93
2022-08-28T05:18:03.444Z,43.82
2022-08-28T05:20:38.061Z,43.86
2022-08-28T05:23:12.865Z,43.76
2022-08-28T05:25:45.290Z,43.73
2022-08-28T05:28:20.670Z,43.65
2022-08-28T05:30:51.509Z,43.82
2022-08-28T05:33:22.584Z,43.77
2022-08-28T05:35:53.513Z,43.88
2022-08-28T05:38:29.944Z,44.09
2022-08-28T05:41:00.661Z,43.76
2022-08-28T05:43:32.390Z,43.83
2022-08-28T05:46:03.654Z,43.92
2022-08-28T05:48:37.112Z,43.63
2022-08-28T05:51:15.240Z,43.78
2022-08-28T05:53:46.842Z,43.63
2022-08-28T05:56:20.777Z,43.59
2022-08-28T05:58:51.498Z,43.70
2022-08-28T06:01:27.255Z,43.49
2022-08-28T06:04:01.248Z,43.57
2022-08-28T06:06:35.045Z,43.67
2022-08-28T06:09:11.717Z,43.52
2022-08-28T06:11:44.731Z,43.53
2022-08-28T06:14:19.756Z,43.40
2022-08-28T06:16:52.295Z,43.19
2022-08-28T06:19:26.035Z,43.17
2022-08-28T06:22:00.078Z,42.72
2022-08-28T06:24:32.942Z,42.74
2022-08-28T06:27:17.921Z,42.60
2022-08-28T06:29:48.990Z,42.43
2022-08-28T06:32:23.093Z,42.33
2022-08-28T06:34:56.030Z,42.22
2022-08-28T06:37:27.659Z,41.91
2022-08-28T06:40:01.870Z,41.73
2022-08-28T06:42:37.343Z,41.56
2022-08-28T06:45:15.964Z,41.52
2022-08-28T06:47:50.516Z,41.21
2022-08-28T06:50:28.792Z,41.09
2022-08-28T06:53:00.373Z,40.73
2022-08-28T06:55:37.117Z,40.78
2022-08-28T06:58:27.844Z,40.46
2022-08-28T07:04:01.101Z,39.89
2022-08-28T07:06:39.609Z,39.72
2022-08-28T07:09:41.134Z,39.34
2022-08-28T07:12:14.084Z,38.82
2022-08-28T07:15:26.049Z,38.56
2022-08-28T07:17:51.625Z,38.29
2022-08-28T07:20:36.660Z,38.14
2022-08-28T07:23:29.346Z,37.95
2022-08-28T07:26:06.009Z,37.68
2022-08-28T07:28:42.692Z,37.54
2022-08-28T07:31:18.243Z,37.40
2022-08-28T07:34:00.291Z,37.21
2022-08-28T07:36:32.385Z,37.12
2022-08-28T07:39:03.158Z,37.19
2022-08-28T07:41:39.384Z,36.76
2022-08-28T07:44:28.798Z,36.49
2022-08-28T07:47:04.393Z,36.58
2022-08-28T07:49:35.886Z,36.38
2022-08-28T07:52:08.472Z,36.27
2022-08-28T07:54:43.725Z,36.15
2022-08-28T07:57:14.650Z,36.00
2022-08-28T07:59:47.664Z,35.76
2022-08-28T08:02:19.632Z,35.67
2022-08-28T08:04:52.496Z,35.57
2022-08-28T08:07:23.400Z,35.59
2022-08-28T08:09:54.021Z,35.58
2022-08-28T08:12:26.540Z,35.29
2022-08-28T08:15:02.657Z,35.51
2022-08-28T08:17:37.862Z,35.23
2022-08-28T08:20:13.254Z,35.33
2022-08-28T08:22:44.359Z,35.24
2022-08-28T08:25:18.367Z,35.28
2022-08-28T08:27:52.070Z,35.11
2022-08-28T08:30:25.623Z,34.97
2022-08-28T08:32:59.447Z,35.04
2022-08-28T08:35:33.833Z,34.99
2022-08-28T08:38:05.805Z,34.95
2022-08-28T08:40:40.102Z,35.13
2022-08-28T08:43:14.464Z,34.83
2022-08-28T08:45:47.827Z,34.75
2022-08-28T08:48:25.313Z,34.43
2022-08-28T08:50:59.920Z,34.68
2022-08-28T08:53:32.332Z,34.41
2022-08-28T08:56:06.045Z,34.41
2022-08-28T08:58:37.819Z,34.12
2022-08-28T09:01:11.596Z,34.06
2022-08-28T09:03:49.624Z,33.84
2022-08-28T09:06:31.628Z,33.45
2022-08-28T09:09:03.747Z,33.51
2022-08-28T09:11:50.365Z,33.10
2022-08-28T09:14:31.786Z,32.87
2022-08-28T09:17:02.817Z,32.81
2022-08-28T09:19:34.641Z,32.37
2022-08-28T09:22:12.339Z,32.35
2022-08-28T09:24:45.491Z,31.80
2022-08-28T09:27:29.828Z,31.43
2022-08-28T09:30:07.725Z,31.40
2022-08-28T09:32:45.003Z,30.98
2022-08-28T09:35:27.444Z,30.74
2022-08-28T09:38:17.596Z,30.30
2022-08-28T09:41:10.750Z,29.88
2022-08-28T09:43:42.624Z,29.60
2022-08-28T09:46:18.050Z,29.37
2022-08-28T09:48:51.028Z,28.96
2022-08-28T09:51:39.565Z,28.73
2022-08-28T09:54:14.247Z,28.21
2022-08-28T09:56:48.980Z,27.51
2022-08-28T09:59:20.317Z,26.96
2022-08-28T10:01:55.022Z,26.74
2022-08-28T10:04:31.528Z,26.71
2022-08-28T10:07:03.673Z,26.34
2022-08-28T10:09:38.601Z,26.13
2022-08-28T10:12:22.578Z,25.59
2022-08-28T10:14:59.570Z,25.34
2022-08-28T10:17:34.061Z,25.21
2022-08-28T10:20:08.585Z,25.15
2022-08-28T10:22:41.609Z,25.14
2022-08-28T10:25:25.742Z,24.89
2022-08-28T10:27:59.572Z,24.45
2022-08-28T10:30:34.544Z,24.03
2022-08-28T10:33:21.204Z,23.37
2022-08-28T10:35:57.491Z,23.53
2022-08-28T10:38:31.499Z,23.40
2022-08-28T10:41:14.353Z,23.19
2022-08-28T10:43:51.453Z,23.18
2022-08-28T10:46:27.149Z,23.08
2022-08-28T10:48:59.938Z,22.61
2022-08-28T10:51:35.262Z,22.25
2022-08-28T10:54:23.019Z,22.25
2022-08-28T10:57:00.342Z,21.98
2022-08-28T10:59:31.187Z,21.79
2022-08-28T11:02:07.248Z,21.64
2022-08-28T11:04:37.957Z,21.51
2022-08-28T11:07:10.788Z,21.28
2022-08-28T11:09:42.344Z,20.96
2022-08-28T11:12:33.945Z,20.90
2022-08-28T11:15:21.015Z,20.76
2022-08-28T11:17:52.909Z,20.52
2022-08-28T11:20:25.200Z,20.53
2022-08-28T11:22:59.799Z,20.16
2022-08-28T11:25:34.900Z,20.05
2022-08-28T11:28:20.212Z,19.79
2022-08-28T11:30:51.737Z,19.72
2022-08-28T11:33:41.473Z,19.55
2022-08-28T11:36:15.038Z,18.96
2022-08-28T11:39:16.403Z,18.73
2022-08-28T11:42:00.381Z,18.80
2022-08-28T11:44:44.700Z,18.49
2022-08-28T11:47:38.957Z,18.26
2022-08-28T11:50:16.532Z,18.02
2022-08-28T11:53:04.738Z,17.56
2022-08-28T11:55:39.836Z,17.59
2022-08-28T12:00:53.012Z,17.36
2022-08-28T12:03:28.386Z,17.22
2022-08-28T12:05:59.328Z,17.14
2022-08-28T12:08:45.264Z,16.99
2022-08-28T12:11:37.532Z,16.67
2022-08-28T12:14:08.320Z,16.76
2022-08-28T12:17:06.353Z,16.69
2022-08-28T12:19:41.186Z,16.71
2022-08-28T12:22:21.708Z,16.53
2022-08-28T12:25:00.222Z,16.34
2022-08-28T12:27:31.852Z,16.11
2022-08-28T12:30:02.811Z,16.06
2022-08-28T12:32:37.355Z,16.13
2022-08-28T12:35:17.940Z,16.08
2022-08-28T12:38:02.411Z,16.11
2022-08-28T12:40:38.864Z,16.09
2022-08-28T12:43:10.618Z,15.67
2022-08-28T12:45:47.226Z,15.75
2022-08-28T12:48:19.096Z,15.63
2022-08-28T12:50:50.525Z,15.51
2022-08-28T12:53:22.915Z,15.65
2022-08-28T12:55:54.776Z,15.68
2022-08-28T12:58:34.463Z,15.25
2022-08-28T13:01:20.667Z,15.31
2022-08-28T13:03:54.841Z,15.16
2022-08-28T13:06:28.873Z,15.11
2022-08-28T13:09:03.540Z,14.89
2022-08-28T13:11:41.475Z,14.82
2022-08-28T13:14:12.333Z,14.59
2022-08-28T13:16:43.683Z,14.72
2022-08-28T13:19:27.544Z,14.55
2022-08-28T13:22:02.966Z,14.51
2022-08-28T13:24:42.430Z,14.63
2022-08-28T13:27:29.358Z,14.31
2022-08-28T13:30:04.304Z,14.18
2022-08-28T13:32:38.676Z,14.16
2022-08-28T13:35:29.860Z,14.30
2022-08-28T13:38:03.633Z,14.41
2022-08-28T13:43:27.570Z,14.50
2022-08-28T13:45:59.500Z,14.32
2022-08-28T13:48:32.395Z,14.34
2022-08-28T13:51:05.181Z,14.40
2022-08-28T13:53:41.748Z,14.33
2022-08-28T13:56:15.407Z,14.38
2022-08-28T13:58:50.029Z,14.36
2022-08-28T14:01:51.525Z,14.10
2022-08-28T14:04:25.571Z,14.40
2022-08-28T14:06:56.601Z,14.28
2022-08-28T14:09:29.416Z,14.27
2022-08-28T14:12:08.446Z,14.14
2022-08-28T14:14:43.720Z,14.04
2022-08-28T14:17:19.239Z,13.96
2022-08-28T14:19:50.236Z,13.87
2022-08-28T14:22:22.163Z,13.85
2022-08-28T14:24:55.263Z,14.00
2022-08-28T14:27:32.375Z,13.82
2022-08-28T14:30:06.138Z,13.73
2022-08-28T14:32:41.197Z,13.92
2022-08-28T14:35:18.076Z,13.97
2022-08-28T14:37:51.037Z,13.82
2022-08-28T14:40:25.200Z,13.83
2022-08-28T14:42:56.007Z,13.95
2022-08-28T14:45:33.973Z,13.69
2022-08-28T14:48:04.947Z,13.82
2022-08-28T14:50:43.297Z,13.95
2022-08-28T14:53:15.226Z,13.84
2022-08-28T14:55:47.632Z,14.05
2022-08-28T14:58:19.609Z,14.12
2022-08-28T15:00:51.103Z,13.86
2022-08-28T15:03:24.708Z,14.17
2022-08-28T15:06:08.612Z,14.46
2022-08-28T15:08:39.916Z,14.37
2022-08-28T15:11:19.038Z,14.35
2022-08-28T15:13:51.831Z,14.56
2022-08-28T15:16:29.839Z,14.55
2022-08-28T15:19:02.981Z,14.81
2022-08-28T15:21:35.662Z,14.91
2022-08-28T15:24:08.828Z,14.99
2022-08-28T15:26:40.425Z,14.97
2022-08-28T15:29:12.173Z,14.93
2022-08-28T15:31:44.542Z,15.16
2022-08-28T15:34:18.636Z,15.33
2022-08-28T15:36:55.645Z,15.23
2022-08-28T15:39:45.748Z,15.46
2022-08-28T15:42:21.361Z,15.48
2022-08-28T15:44:54.900Z,15.61
2022-08-28T15:47:27.922Z,15.56
2022-08-28T15:49:58.553Z,15.70
2022-08-28T15:52:32.301Z,15.85
2022-08-28T15:55:10.505Z,15.97
2022-08-28T15:57:41.792Z,16.15
2022-08-28T16:00:13.816Z,16.00
2022-08-28T16:02:50.203Z,16.15
2022-08-28T16:05:22.861Z,16.43
2022-08-28T16:07:55.373Z,16.75
2022-08-28T16:10:28.258Z,16.96
2022-08-28T16:13:03.365Z,17.12
2022-08-28T16:15:34.260Z,17.40
2022-08-28T16:18:09.109Z,17.55
2022-08-28T16:20:39.980Z,17.63
2022-08-28T16:23:12.793Z,17.68
2022-08-28T16:25:43.524Z,17.73
2022-08-28T16:28:14.528Z,17.96
2022-08-28T16:30:50.014Z,18.18
2022-08-28T16:33:23.125Z,18.00
2022-08-28T16:35:56.468Z,18.36
2022-08-28T16:38:27.499Z,18.46
2022-08-28T16:40:58.556Z,18.70
2022-08-28T16:43:29.313Z,18.97
2022-08-28T16:46:01.334Z,19.05
2022-08-28T16:48:37.630Z,19.18
2022-08-28T16:51:11.157Z,19.17
2022-08-28T16:53:48.456Z,19.29
2022-08-28T16:56:23.924Z,19.46
2022-08-28T16:58:56.174Z,19.77
2022-08-28T17:01:28.292Z,19.95
2022-08-28T17:04:16.026Z,20.01
2022-08-28T17:06:52.336Z,19.94
2022-08-28T17:09:28.015Z,20.13
2022-08-28T17:12:04.875Z,20.28
2022-08-28T17:14:35.943Z,20.26
2022-08-28T17:17:06.841Z,20.38
2022-08-28T17:19:43.011Z,20.59
2022-08-28T17:22:31.101Z,20.58
2022-08-28T17:25:03.360Z,20.81
2022-08-28T17:27:39.321Z,20.83
2022-08-28T17:30:12.248Z,21.10
2022-08-28T17:32:44.413Z,21.37
2022-08-28T17:35:15.326Z,21.39
2022-08-28T17:37:53.504Z,21.62
2022-08-28T17:40:26.835Z,21.73
2022-08-28T17:42:57.658Z,21.89
2022-08-28T17:45:28.841Z,21.96
2022-08-28T17:48:02.660Z,21.90
2022-08-28T17:50:37.021Z,21.97
2022-08-28T17:53:11.653Z,22.30
2022-08-28T17:55:43.987Z,22.49
2022-08-28T17:58:14.964Z,22.61
2022-08-28T18:00:47.572Z,22.56
2022-08-28T18:03:20.825Z,22.93
2022-08-28T18:05:55.702Z,23.17
2022-08-28T18:08:28.934Z,23.12
2022-08-28T18:11:00.801Z,23.24
2022-08-28T18:13:33.926Z,23.22
2022-08-28T18:16:07.811Z,23.14
2022-08-28T18:18:39.143Z,23.42
2022-08-28T18:21:12.631Z,23.36
2022-08-28T18:23:43.738Z,23.67
2022-08-28T18:26:23.602Z,23.96
2022-08-28T18:28:55.016Z,24.10
2022-08-28T18:31:28.919Z,24.14
2022-08-28T18:34:01.762Z,24.36
2022-08-28T18:36:51.920Z,24.17
2022-08-28T18:39:39.367Z,24.47
2022-08-28T18:42:13.394Z,24.48
2022-08-28T18:44:46.524Z,24.87
2022-08-28T18:47:20.800Z,24.80
2022-08-28T18:49:53.672Z,24.86
2022-08-28T18:52:24.452Z,25.01
2022-08-28T18:55:00.601Z,25.16
2022-08-28T18:57:33.956Z,24.98
2022-08-28T19:00:11.936Z,25.33
2022-08-28T19:02:45.009Z,25.42
2022-08-28T19:05:16.155Z,25.59
2022-08-28T19:07:50.011Z,25.51
2022-08-28T19:10:32.699Z,25.80
2022-08-28T19:13:09.505Z,26.05
2022-08-28T19:15:40.867Z,26.24
2022-08-28T19:18:14.908Z,26.28
2022-08-28T19:20:46.162Z,26.54
2022-08-28T19:23:18.009Z,26.72
2022-08-28T19:25:49.416Z,26.85
2022-08-28T19:28:23.281Z,27.11
2022-08-28T19:30:54.174Z,27.29
2022-08-28T19:33:28.149Z,27.41
2022-08-28T19:36:00.343Z,27.70
2022-08-28T19:38:39.850Z,27.84
2022-08-28T19:41:11.481Z,28.17
2022-08-28T19:43:43.263Z,28.30
2022-08-28T19:46:22.045Z,28.43
2022-08-28T19:48:53.145Z,28.73
2022-08-28T19:51:33.416Z,28.96
2022-08-28T19:54:05.868Z,29.12
2022-08-28T19:56:44.268Z,29.34
2022-08-28T19:59:26.963Z,29.54
2022-08-28T20:01:58.063Z,29.70
2022-08-28T20:04:28.765Z,29.80
2022-08-28T20:07:00.847Z,29.95
2022-08-28T20:09:36.965Z,30.03
2022-08-28T20:12:07.916Z,30.21
2022-08-28T20:14:41.701Z,30.31
2022-08-28T20:17:14.312Z,30.38
2022-08-28T20:19:50.144Z,30.54
2022-08-28T20:22:25.868Z,30.69
2022-08-28T20:24:56.780Z,30.82
2022-08-28T20:27:28.055Z,30.91
2022-08-28T20:30:00.650Z,30.80
2022-08-28T20:32:47.443Z,31.00
2022-08-28T20:35:22.109Z,31.03
2022-08-28T20:37:57.826Z,31.11
2022-08-28T20:40:29.933Z,31.32
2022-08-28T20:43:05.317Z,31.29
2022-08-28T20:45:37.313Z,31.38
2022-08-28T20:48:08.237Z,31.37
2022-08-28T20:50:41.427Z,31.34
2022-08-28T20:53:12.812Z,31.54
2022-08-28T20:56:04.389Z,31.49
2022-08-28T20:58:37.471Z,31.70
2022-08-28T21:01:08.802Z,31.57
2022-08-28T21:03:45.182Z,31.55
2022-08-28T21:06:18.383Z,31.76
2022-08-28T21:08:50.524Z,31.82
2022-08-28T21:11:21.687Z,32.00
2022-08-28T21:13:52.998Z,32.25
2022-08-28T21:16:25.942Z,32.24
2022-08-28T21:19:16.741Z,32.44
2022-08-28T21:21:57.192Z,32.49
2022-08-28T21:24:30.227Z,32.83
2022-08-28T21:27:09.588Z,32.81
2022-08-28T21:29:44.090Z,32.87
2022-08-28T21:32:19.814Z,33.11
2022-08-28T21:34:55.186Z,32.96
2022-08-28T21:37:28.560Z,33.07
2022-08-28T21:40:00.872Z,32.89
2022-08-28T21:42:34.171Z,32.91
2022-08-28T21:45:11.261Z,33.23
2022-08-28T21:47:46.209Z,33.35
2022-08-28T21:50:18.419Z,33.33
2022-08-28T21:52:51.704Z,33.18
2022-08-28T21:55:25.180Z,33.30
2022-08-28T21:58:00.807Z,33.45
2022-08-28T22:00:33.215Z,33.39
2022-08-28T22:03:12.573Z,33.87
2022-08-28T22:05:45.015Z,33.58
2022-08-28T22:08:15.973Z,33.67
2022-08-28T22:10:49.797Z,33.71
2022-08-28T22:13:28.488Z,33.56
2022-08-28T22:16:02.269Z,33.60
2022-08-28T22:18:34.312Z,33.61
2022-08-28T22:21:24.292Z,33.96
2022-08-28T22:23:57.633Z,34.00
2022-08-28T22:26:30.959Z,34.22
2022-08-28T22:29:05.645Z,34.07
2022-08-28T22:31:41.367Z,34.50
2022-08-28T22:34:20.235Z,34.43
2022-08-28T22:36:51.449Z,34.48
2022-08-28T22:39:30.182Z,34.74
2022-08-28T22:42:06.604Z,34.78
2022-08-28T22:44:41.571Z,34.82
2022-08-28T22:47:18.875Z,34.92
2022-08-28T22:49:51.115Z,35.12
2022-08-28T22:52:23.136Z,35.07
2022-08-28T22:54:54.885Z,34.93
2022-08-28T22:57:29.268Z,35.21
2022-08-28T23:00:06.508Z,35.25
2022-08-28T23:02:38.917Z,35.29
2022-08-28T23:05:11.601Z,35.18
2022-08-28T23:07:46.997Z,35.59
2022-08-28T23:10:19.376Z,35.29
2022-08-28T23:12:51.546Z,35.37
2022-08-28T23:15:23.442Z,35.52
2022-08-28T23:17:55.629Z,35.73
2022-08-28T23:20:28.839Z,35.57
2022-08-28T23:23:02.832Z,36.02
2022-08-28T23:25:36.067Z,35.72
2022-08-28T23:28:09.644Z,36.09
2022-08-28T23:30:44.059Z,36.14
2022-08-28T23:33:23.698Z,36.09
2022-08-28T23:35:55.388Z,36.34
2022-08-28T23:38:27.189Z,36.26
2022-08-28T23:40:58.673Z,36.45
2022-08-28T23:43:31.253Z,36.63
2022-08-28T23:46:02.818Z,36.57
2022-08-28T23:48:33.748Z,36.74
2022-08-28T23:51:12.105Z,36.86
2022-08-28T23:53:45.972Z,37.21
2022-08-28T23:56:19.740Z,37.28
2022-08-28T23:58:54.059Z,37.26
